• Join FlightAware (Why Join?)
  • Login
  • US Flag 
09:53PM EDT


 

Airport Tracker/Info


-or-


 

Live Flight TrackerFlight Track Log ✈ N567MG ✈ 17-Jun-2013 ✈ KAND - KAPF

Flight Track Log - Related Links

Times and Time Zones

All times are in EDT time to prevent confusion due to time zone crossing. See the N567MG flight status page for this flight to view local times or setup timezone preferences in your user account.

Time Position Orientation Groundspeed Altitude Reporting Facility
EDT Latitude Longitude Course Direction KTS MPH feet Rate Location/Type
11:02AM 33.0228 -82.5028 174° South 160 184 6,500  Level Atlanta Center
11:03AM 32.9808 -82.4961 172° South 160 184 6,500  Level Atlanta Center
11:04AM 32.9369 -82.4894 173° South 160 184 6,500  Level Atlanta Center
11:05AM 32.8931 -82.4828 173° South 160 184 6,500  Level Atlanta Center
11:06AM 32.8511 -82.4736 170° South 160 184 6,500  Level Atlanta Center
11:07AM 34.3924 -82.6969 174° South  Level Estimated
11:07AM 32.8094 -82.4669 172° South 160 184 6,500  Level Atlanta Center
11:08AM 32.7656 -82.4653 178° South 160 184 6,500  Level Atlanta Center
11:09AM 32.7236 -82.4561 170° South 160 184 6,500  Level Atlanta Center
11:11AM 32.6481 -82.4286 163° South 157 181 6,500  Level Jacksonville Center
11:12AM 32.6061 -82.4092 159° South 157 181 6,500  Level Jacksonville Center
11:13AM 32.5683 -82.3897 157° South 157 181 6,500  Level Jacksonville Center
11:14AM 32.5267 -82.3775 166° South 152 175 6,500  Level Jacksonville Center
11:15AM 32.4847 -82.3656 166° South 152 175 6,500  Level Jacksonville Center
11:16AM 32.4431 -82.3511 164° South 152 175 6,500  Level Jacksonville Center
11:17AM 32.4033 -82.3414 168° South 159 183 6,500  Level Jacksonville Center
11:18AM 32.3636 -82.3319 169° South 159 183 6,500  Level Jacksonville Center
11:19AM 32.3197 -82.3222 169° South 159 183 6,500  Level Jacksonville Center
11:20AM 32.2739 -82.3175 175° South 159 183 6,500  Level Jacksonville Center
11:21AM 32.2319 -82.3156 178° South 156 180 6,500  Level Jacksonville Center
11:22AM 32.1903 -82.3033 166° South 162 186 6,500  Level Jacksonville Center
11:23AM 32.1525 -82.2989 174° South 162 186 6,500  Level Jacksonville Center
11:24AM 32.1067 -82.2967 178° South 156 180 6,500  Level Jacksonville Center
11:25AM 32.0650 -82.2919 175° South 156 180 6,500  Level Jacksonville Center
11:26AM 32.0231 -82.2872 175° South 156 180 6,500  Level Jacksonville Center
11:27AM 31.9833 -82.2875 180° South 161 185 6,500  Level Jacksonville Center
11:28AM 31.9417 -82.2856 178° South 161 185 6,500  Level Jacksonville Center
11:29AM 31.8936 -82.2808 175° South 161 185 6,500  Level Jacksonville Center
11:30AM 31.8497 -82.2761 175° South 161 185 6,500  Level Jacksonville Center
11:31AM 31.8081 -82.2742 178° South 156 180 6,500  Level Jacksonville Center
11:32AM 31.7683 -82.2719 177° South 156 180 6,500  Level Jacksonville Center
11:33AM 31.7244 -82.2697 178° South 156 180 6,500  Level Jacksonville Center
11:34AM 31.6786 -82.2700 180° South 156 180 6,500  Level Jacksonville Center
11:35AM 31.6347 -82.2703 180° South 156 180 6,500  Level Jacksonville Center
11:36AM 31.5972 -82.2681 177° South 161 185 6,500  Level Jacksonville Center
11:37AM 31.5533 -82.2708 183° South 156 180 6,500  Level Jacksonville Center
11:38AM 31.5072 -82.2689 178° South 161 185 6,500  Level Jacksonville Center
11:39AM 31.4656 -82.2692 180° South 156 180 6,500  Level Jacksonville Center
11:40AM 31.4239 -82.2742 186° South 157 181 6,500  Level Jacksonville Center
11:41AM 31.3842 -82.2694 174° South 157 181 6,500  Level Jacksonville Center
11:42AM 31.3383 -82.2722 183° South 164 189 6,500  Level Jacksonville Center
11:43AM 31.2964 -82.2750 183° South 159 183 6,500  Level Jacksonville Center
11:44AM 31.2525 -82.2728 178° South 159 183 6,500  Level Jacksonville Center
11:45AM 31.2089 -82.2731 180° South 159 183 6,500  Level Jacksonville Center
11:46AM 31.1567 -82.2711 178° South 153 176 6,500  Level Jacksonville Center
11:47AM 31.1231 -82.2689 177° South 155 178 6,500  Level Jacksonville Center
11:47AM 31.1231 -82.2689 177° South 159 183 6,500  Level Jacksonville Center
11:48AM 31.0833 -82.2472 155° Southeast 160 184 6,500  Level Jacksonville Center
11:49AM 31.0436 -82.2258 155° Southeast 157 181 6,500  Level Jacksonville Center
11:50AM 31.0017 -82.2139 166° South 156 180 6,500  Level Jacksonville Center
11:51AM 30.9600 -82.1972 161° South 159 183 6,500  Level Jacksonville Center
11:52AM 30.9181 -82.1903 172° South 159 183 6,500  Level Jacksonville Center
11:53AM 30.8764 -82.1931 183° South 159 183 6,500  Level Jacksonville Center
11:54AM 30.8306 -82.1958 183° South 159 183 6,500  Level Jacksonville Center
11:55AM 30.7886 -82.1986 183° South 159 183 6,500  Level Jacksonville Center
11:56AM 30.7450 -82.2036 186° South 159 183 6,500  Level Jacksonville Center
11:57AM 30.6822 -82.2067 182° South 156 180 6,500  Level Jacksonville Center
11:58AM 30.6406 -82.2092 183° South 156 180 6,500  Level Jacksonville Center
11:59AM 30.5989 -82.2217 194° South 154 177 6,500  Level Jacksonville Center
12:00PM 30.5656 -82.2317 194° South 154 177 6,500  Level Jacksonville Center
12:01PM 30.5236 -82.2392 189° South 155 178 6,500  Level Jacksonville Center
12:02PM 30.4778 -82.2417 183° South 154 177 6,500  Level Jacksonville Center
12:03PM 30.4319 -82.2469 186° South 154 177 6,500  Level Jacksonville Center
12:04PM 30.3861 -82.2544 188° South 158 182 6,500  Level Jacksonville Center
12:05PM 30.3464 -82.2594 186° South 157 181 6,500  Level Jacksonville Center
12:06PM 30.3047 -82.2669 189° South 157 181 6,500  Level Jacksonville Center
12:07PM 30.2544 -82.2697 183° South 157 181 6,500  Level Jacksonville Center
12:08PM 30.2169 -82.2700 180° South 158 182 6,500  Level Jacksonville Center
12:09PM 30.1689 -82.2750 185° South 158 182 6,500  Level Jacksonville Center
12:10PM 30.1147 -82.2731 178° South 160 184 6,600  Climbing Jacksonville Center
12:11PM 30.0708 -82.2733 180° South 160 184 6,600  Level Jacksonville Center
12:12PM 30.0292 -82.2783 186° South 160 184 6,600 -60 Level Jacksonville Center
12:13PM 29.9872 -82.2786 180° South 158 182 6,500 -60 Descending Jacksonville Center
12:14PM 29.9456 -82.2789 180° South 160 184 6,500  Level Jacksonville Center
12:15PM 29.8975 -82.2744 175° South 158 182 6,500  Level Jacksonville Center
12:16PM 29.8517 -82.2700 175° South 158 182 6,500  Level Jacksonville Center
12:17PM 29.8036 -82.2606 170° South 159 183 6,500  Level Jacksonville Center
12:18PM 29.7639 -82.2561 174° South 157 181 6,500  Level Jacksonville Center
12:19PM 29.7200 -82.2517 175° South 156 180 6,500  Level Jacksonville Center
12:20PM 29.6825 -82.2447 171° South 156 180 6,500  Level Jacksonville Center
12:21PM 29.6364 -82.2378 173° South 157 181 6,500  Level Jacksonville Center
12:22PM 29.5967 -82.2333 174° South 157 181 6,500 120 Level Jacksonville Center
12:23PM 29.5569 -82.2289 174° South 151 174 6,800 420 Climbing Jacksonville Center
12:24PM 29.5131 -82.2244 175° South 132 152 7,400 480 Climbing Jacksonville Center
12:25PM 29.4778 -82.2150 167° South 129 148 7,900 540 Climbing Jacksonville Center
12:26PM 29.4422 -82.2106 174° South 126 145 8,500 240 Climbing Jacksonville Center
12:27PM 29.4025 -82.2061 174° South 137 158 8,500  Level Jacksonville Center
12:28PM 29.3692 -82.2158 194° South 141 162 8,500  Level Jacksonville Center
12:29PM 29.3378 -82.2397 214° Southwest 142 163 8,500  Level Jacksonville Center
12:30PM 29.3025 -82.2617 208° Southwest 146 168 8,500 120 Level Jacksonville Center
12:31PM 29.2733 -82.2878 218° Southwest 146 168 8,800 360 Climbing Jacksonville Center
12:32PM 29.2422 -82.3094 211° Southwest 131 151 9,200 300 Climbing Jacksonville Center
12:33PM 29.2089 -82.3358 215° Southwest 125 144 9,500 120 Climbing Jacksonville Center
12:34PM 29.1736 -82.3575 208° Southwest 142 163 9,500  Level Jacksonville Center
12:35PM 29.1403 -82.3767 207° Southwest 150 173 9,500  Level Jacksonville Center
12:36PM 29.1006 -82.4031 210° Southwest 150 173 9,500  Level Jacksonville Center
12:37PM 29.0569 -82.4269 206° Southwest 153 176 9,500  Level Jacksonville Center
12:38PM 29.0217 -82.4533 213° Southwest 150 173 9,500  Level Jacksonville Center
12:39PM 28.9839 -82.4678 198° South 149 171 9,500  Level Jacksonville Center
12:40PM 28.9422 -82.4797 194° South 151 174 9,500  Level Jacksonville Center
12:41PM 28.9028 -82.4917 195° South 150 173 9,500 60 Level Jacksonville Center
12:42PM 28.8589 -82.4967 186° South 147 169 9,700 300 Climbing Jacksonville Center
12:44PM 28.8214 -82.4897 171° South 133 153 10,200 360 Climbing Jacksonville Center
12:45PM 28.7858 -82.4828 170° South 128 147 10,500 120 Climbing Jacksonville Center
12:46PM 28.7439 -82.4783 175° South 147 169 10,500  Level Jacksonville Center
12:48PM 28.6667 -82.4833 183° South 161 185 10,500  Level Tampa TRACON
12:48PM 28.6333 -82.5000 204° Southwest 157 181 10,500  Level Tampa TRACON
12:49PM 28.5833 -82.5167 196° South 154 177 10,500  Level Tampa TRACON
12:51PM 28.5336 -82.4960 160° South  Level FlightAware Approximate
12:58PM 28.2121 -82.3627 160° South  Level FlightAware Approximate
12:59PM 28.1661 -82.3438 160° South  Level FlightAware Approximate
01:00PM 28.1202 -82.3248 160° South  Level FlightAware Approximate
01:01PM 28.0743 -82.3059 160° South  Level FlightAware Approximate
01:02PM 28.0283 -82.2869 160° South  Level FlightAware Approximate
01:03PM 27.9824 -82.2680 160° South  Level FlightAware Approximate
01:04PM 27.9364 -82.2491 160° South  Level FlightAware Approximate
01:05PM 27.8905 -82.2303 160° South  Level FlightAware Approximate
01:06PM 27.8445 -82.2114 160° South  Level FlightAware Approximate
01:07PM 27.7958 -82.1936 165° South  Level FlightAware Approximate
01:08PM 27.7486 -82.1790 165° South  Level FlightAware Approximate
01:09PM 27.7015 -82.1645 165° South  Level FlightAware Approximate
01:10PM 27.6543 -82.1500 165° South  Level FlightAware Approximate
01:11PM 27.6071 -82.1355 165° South  Level FlightAware Approximate
01:12PM 27.5599 -82.1212 165° South  Level FlightAware Approximate
01:13PM 27.5127 -82.1070 165° South  Level FlightAware Approximate
01:13PM 27.6275 -82.3714 165° South 153 176 11,500  Level Miami Center
01:14PM 27.4654 -82.0928 165° South  Level FlightAware Approximate
01:14PM 27.5881 -82.3622 168° South 157 181 11,500  Level Miami Center
01:15PM 27.4182 -82.0786 165° South  Level FlightAware Approximate
01:15PM 27.5428 -82.3486 165° South 157 181 11,500  Level Miami Center
01:16PM 27.3710 -82.0645 165° South  Level FlightAware Approximate
01:16PM 27.5014 -82.3372 166° South 157 181 11,500  Level Miami Center
01:17PM 27.3237 -82.0503 165° South  Level FlightAware Approximate
01:17PM 27.4581 -82.3258 167° South 157 181 11,500  Level Miami Center
01:18PM 27.2765 -82.0361 165° South  Level FlightAware Approximate
01:18PM 27.4144 -82.3189 172° South 157 181 11,500  Level Miami Center
01:19PM 27.3711 -82.3075 167° South 162 186 11,500  Level Miami Center
01:20PM 27.3297 -82.2964 167° South 162 186 11,500  Level Miami Center
01:21PM 27.2864 -82.2872 169° South 162 186 11,500  Level Miami Center
01:22PM 27.2447 -82.2783 169° South 162 186 11,500 -300 Level Miami Center
01:23PM 27.1972 -82.2692 170° South 162 186 11,000 -600 Descending Miami Center
01:24PM 27.1475 -82.2597 170° South 172 198 10,400 -600 Descending Miami Center
01:25PM 27.1000 -82.2458 165° South 182 209 9,800 -660 Descending Miami Center
01:26PM 27.0483 -82.2342 169° South 182 209 9,100 -720 Descending Miami Center
01:27PM 26.9964 -82.2247 171° South 187 215 8,400 -660 Descending Miami Center
01:28PM 26.9469 -82.2108 166° South 187 215 7,800 -660 Descending Miami Center
01:29PM 26.8972 -82.2017 171° South 187 215 7,100 -720 Descending Miami Center
01:30PM 26.8494 -82.1925 170° South 182 209 6,400 -660 Descending Miami Center
01:31PM 26.7997 -82.1831 170° South 182 209 5,800 -480 Descending Miami Center
01:32PM 26.7519 -82.1764 173° South 182 209 5,500 -180 Descending Miami Center
01:33PM 26.7042 -82.1694 173° South 175 201 5,500  Level Miami Center
01:35PM 26.6478 -82.1290 156° South  Level Estimated
01:42PM 26.3458 -81.9088 147° Southeast  Level FlightAware Approximate
01:43PM 26.3027 -81.8774 147° Southeast  Level FlightAware Approximate
01:44PM 26.2595 -81.8460 147° Southeast  Level FlightAware Approximate
01:45PM 26.2163 -81.8147 147° Southeast  Level FlightAware Approximate
01:46PM 26.1731 -81.7834 147° Southeast  Level FlightAware Approximate
01:47PM 26.1500 -81.7667 156° South  Level FlightAware Approximate
01:48PM 26.1524 -81.7756 156° South  Level Estimated
01:49PM 26.1524 -81.7756 156° South  Level Estimated